createdAt,value
2014-07-09T00:00:53.621Z,73.08
2014-07-09T00:01:58.317Z,73.31
2014-07-09T00:03:03.308Z,73.38
2014-07-09T00:04:08.000Z,73.67
2014-07-09T00:05:12.988Z,73.19
2014-07-09T00:06:17.695Z,73.32
2014-07-09T00:07:22.684Z,73.3
2014-07-09T00:08:27.375Z,73.38
2014-07-09T00:09:32.080Z,73.47
2014-07-09T00:10:37.067Z,73.73
2014-07-09T00:11:41.757Z,73.89
2014-07-09T00:12:46.743Z,73.79
2014-07-09T00:13:51.715Z,73.85
2014-07-09T00:14:56.405Z,74.05
2014-07-09T00:16:01.080Z,73.88
2014-07-09T00:17:05.769Z,74.16
2014-07-09T00:18:10.443Z,74.1
2014-07-09T00:19:15.133Z,74.27
2014-07-09T00:20:19.807Z,73.62
2014-07-09T00:21:24.496Z,73.8
2014-07-09T00:22:29.185Z,73.43
2014-07-09T00:23:33.876Z,73.42
2014-07-09T00:24:38.550Z,73.53
2014-07-09T00:25:43.536Z,73.4
2014-07-09T00:26:48.226Z,74.3
2014-07-09T00:27:52.900Z,73.75
2014-07-09T00:28:57.589Z,73.74
2014-07-09T00:30:02.263Z,73.2
2014-07-09T00:31:06.953Z,73.27
2014-07-09T00:32:11.627Z,73.61
2014-07-09T00:33:16.316Z,73.32
2014-07-09T00:34:20.991Z,73.35
2014-07-09T00:35:25.680Z,73.7
2014-07-09T00:36:30.666Z,74.08
2014-07-09T00:37:35.637Z,74.14
2014-07-09T00:38:40.624Z,73.84
2014-07-09T00:39:45.313Z,73.82
2014-07-09T00:40:49.987Z,74.2
2014-07-09T00:41:54.676Z,74.27
2014-07-09T00:42:59.647Z,73.66
2014-07-09T00:44:04.337Z,73.19
2014-07-09T00:45:09.323Z,73.06
2014-07-09T00:46:14.013Z,72.97
2014-07-09T00:47:18.984Z,72.93
2014-07-09T00:48:23.673Z,73.27
2014-07-09T00:49:28.347Z,73.83
2014-07-09T00:50:33.037Z,73.65
2014-07-09T00:51:38.024Z,72.96
2014-07-09T00:52:42.697Z,73.08
2014-07-09T00:53:47.403Z,73.26
2014-07-09T00:54:52.389Z,73.83
2014-07-09T00:55:57.063Z,73.72
2014-07-09T00:57:02.049Z,73.9
2014-07-09T00:58:06.739Z,74.06
2014-07-09T00:59:11.414Z,74.15
2014-07-09T01:00:16.696Z,73.55
2014-07-09T01:01:21.385Z,73.62
2014-07-09T01:02:26.060Z,73.95
2014-07-09T01:03:30.750Z,74.11
2014-07-09T01:04:35.424Z,73.92
2014-07-09T01:05:40.410Z,73.59
2014-07-09T01:06:45.115Z,73.62
2014-07-09T01:07:50.086Z,73.74
2014-07-09T01:08:55.072Z,73.72
2014-07-09T01:09:59.762Z,73.72
2014-07-09T01:11:04.437Z,74.27
2014-07-09T01:12:09.125Z,74.02
2014-07-09T01:13:13.815Z,74.39
2014-07-09T01:14:18.505Z,74.37
2014-07-09T01:15:23.178Z,73.94
2014-07-09T01:16:27.867Z,74.14
2014-07-09T01:17:32.542Z,74.06
2014-07-09T01:18:37.231Z,74.26
2014-07-09T01:19:41.905Z,73.97
2014-07-09T01:20:46.595Z,73.91
2014-07-09T01:21:51.269Z,74.24
2014-07-09T01:22:55.271Z,74.09
2014-07-09T01:23:59.961Z,73.7
2014-07-09T01:25:04.634Z,74.17
2014-07-09T01:26:09.621Z,73.81
2014-07-09T01:27:14.310Z,74.05
2014-07-09T01:28:18.984Z,73.98
2014-07-09T01:29:23.674Z,74
2014-07-09T01:30:28.645Z,73.79
2014-07-09T01:31:33.334Z,73.76
2014-07-09T01:32:38.023Z,73.42
2014-07-09T01:33:42.698Z,73.69
2014-07-09T01:34:47.684Z,73.93
2014-07-09T01:35:52.359Z,73.98
2014-07-09T01:36:57.048Z,74.23
2014-07-09T01:38:01.722Z,74.07
2014-07-09T01:39:06.411Z,73.97
2014-07-09T01:40:11.101Z,74.34
2014-07-09T01:41:16.072Z,74.06
2014-07-09T01:42:21.058Z,74.09
2014-07-09T01:43:26.044Z,73.58
2014-07-09T01:44:30.719Z,73.52
2014-07-09T01:45:35.408Z,73.98
2014-07-09T01:46:40.082Z,73.83
2014-07-09T01:47:44.772Z,73.27
2014-07-09T01:48:49.446Z,73
2014-07-09T01:49:54.136Z,72.96
2014-07-09T01:50:58.809Z,73.38
2014-07-09T01:52:03.796Z,73.04
2014-07-09T01:53:08.484Z,72.42
2014-07-09T01:54:13.159Z,72.4
2014-07-09T01:55:18.146Z,71.88
2014-07-09T01:56:23.132Z,71.79
2014-07-09T01:57:27.822Z,72.82
2014-07-09T01:58:31.823Z,72.63
2014-07-09T01:59:36.498Z,72.39
2014-07-09T02:00:41.484Z,72.78
2014-07-09T02:01:46.174Z,72.44
2014-07-09T02:02:50.847Z,72.37
2014-07-09T02:03:55.834Z,73.39
2014-07-09T02:05:00.821Z,72.87
2014-07-09T02:06:05.494Z,72.85
2014-07-09T02:07:10.200Z,72.68
2014-07-09T02:08:14.889Z,72.69
2014-07-09T02:09:19.579Z,72.31
2014-07-09T02:10:24.253Z,72.7
2014-07-09T02:11:28.943Z,72.71
2014-07-09T02:12:33.616Z,73.17
2014-07-09T02:13:38.307Z,72.71
2014-07-09T02:14:42.980Z,72.71
2014-07-09T02:15:47.669Z,72.45
2014-07-09T02:16:52.655Z,73.38
2014-07-09T02:17:57.330Z,72.98
2014-07-09T02:19:02.019Z,73.28
2014-07-09T02:20:06.694Z,73.23
2014-07-09T02:21:11.383Z,72.82
2014-07-09T02:22:16.057Z,72.39
2014-07-09T02:23:20.746Z,72.86
2014-07-09T02:24:25.436Z,72.69
2014-07-09T02:25:30.407Z,73.51
2014-07-09T02:26:35.096Z,73.04
2014-07-09T02:27:39.786Z,72.69
2014-07-09T02:28:44.461Z,72.68
2014-07-09T02:29:49.150Z,72.66
2014-07-09T02:30:54.120Z,72.38
2014-07-09T02:31:58.810Z,72.31
2014-07-09T02:33:03.500Z,72.66
2014-07-09T02:34:08.173Z,72.44
2014-07-09T02:35:12.863Z,72.55
2014-07-09T02:36:17.537Z,72.37
2014-07-09T02:37:22.227Z,72.88
2014-07-09T02:38:26.900Z,72.91
2014-07-09T02:39:31.590Z,73.45
2014-07-09T02:40:36.279Z,73.06
2014-07-09T02:41:41.250Z,73.18
2014-07-09T02:42:45.940Z,72.85
2014-07-09T02:43:50.615Z,72.74
2014-07-09T02:44:55.303Z,72.79
2014-07-09T02:45:59.977Z,72.71
2014-07-09T02:47:04.667Z,72.68
2014-07-09T02:48:09.357Z,72.37
2014-07-09T02:49:14.030Z,72.6
2014-07-09T02:50:18.719Z,72.9
2014-07-09T02:51:23.394Z,72.34
2014-07-09T02:52:28.084Z,72.14
2014-07-09T02:53:32.758Z,72.34
2014-07-09T02:54:37.447Z,72.08
2014-07-09T02:55:42.137Z,72.09
2014-07-09T02:56:47.107Z,72.06
2014-07-09T02:57:51.797Z,71.95
2014-07-09T02:58:56.784Z,72.3
2014-07-09T03:00:01.457Z,73.28
2014-07-09T03:01:06.741Z,73.28
2014-07-09T03:02:11.431Z,72.78
2014-07-09T03:03:16.119Z,72.9
2014-07-09T03:04:20.794Z,73.11
2014-07-09T03:05:25.483Z,72.45
2014-07-09T03:06:30.470Z,72.45
2014-07-09T03:07:35.144Z,72.31
2014-07-09T03:08:39.833Z,72.72
2014-07-09T03:09:44.507Z,72.29
2014-07-09T03:10:49.494Z,73.06
2014-07-09T03:11:54.169Z,72.91
2014-07-09T03:12:59.154Z,72.76
2014-07-09T03:14:04.140Z,73.23
2014-07-09T03:15:08.814Z,72.76
2014-07-09T03:16:13.504Z,72.82
2014-07-09T03:17:18.475Z,72.88
2014-07-09T03:18:23.164Z,72.59
2014-07-09T03:19:28.150Z,73.17
2014-07-09T03:20:33.138Z,73.57
2014-07-09T03:21:37.812Z,73.51
2014-07-09T03:22:42.485Z,73.56
2014-07-09T03:23:47.472Z,73.66
2014-07-09T03:24:52.161Z,73.37
2014-07-09T03:25:57.132Z,73.41
2014-07-09T03:27:01.823Z,73.65
2014-07-09T03:28:06.512Z,73.98
2014-07-09T03:29:11.185Z,73.82
2014-07-09T03:30:15.874Z,73.59
2014-07-09T03:31:20.549Z,73.73
2014-07-09T03:32:25.239Z,73.56
2014-07-09T03:33:30.506Z,74.07
2014-07-09T03:34:35.195Z,73.53
2014-07-09T03:35:39.884Z,73.64
2014-07-09T03:36:44.575Z,73.67
2014-07-09T03:37:49.249Z,73.63
2014-07-09T03:38:53.938Z,73.4
2014-07-09T03:39:58.628Z,73.78
2014-07-09T03:41:03.302Z,73.68
2014-07-09T03:42:07.991Z,73.71
2014-07-09T03:43:12.665Z,73.58
2014-07-09T03:44:17.356Z,73.53
2014-07-09T03:45:22.029Z,73.79
2014-07-09T03:46:26.718Z,73.41
2014-07-09T03:47:31.689Z,73.79
2014-07-09T03:48:36.676Z,73.8
2014-07-09T03:49:41.349Z,73.89
2014-07-09T03:50:46.336Z,74.14
2014-07-09T03:51:51.010Z,74.2
2014-07-09T03:52:56.293Z,74.36
2014-07-09T03:54:00.983Z,73.86
2014-07-09T03:55:05.657Z,73.99
2014-07-09T03:56:10.346Z,74.3
2014-07-09T03:57:15.020Z,73.83
2014-07-09T03:58:20.008Z,73.58
2014-07-09T03:59:24.993Z,74.01
2014-07-09T04:00:29.683Z,73.72
2014-07-09T04:01:34.670Z,74.06
2014-07-09T04:02:39.640Z,73.94
2014-07-09T04:03:44.330Z,73.2
2014-07-09T04:04:49.020Z,73.62
2014-07-09T04:05:53.709Z,73.41
2014-07-09T04:06:58.383Z,73.42
2014-07-09T04:08:03.666Z,73.23
2014-07-09T04:09:08.356Z,73.46
2014-07-09T04:10:13.031Z,73.49
2014-07-09T04:11:17.719Z,73.64
2014-07-09T04:12:22.393Z,73.61
2014-07-09T04:13:27.083Z,73.21
2014-07-09T04:14:32.069Z,73.3
2014-07-09T04:15:36.743Z,73.22
2014-07-09T04:16:41.433Z,73.39
2014-07-09T04:17:46.419Z,73.14
2014-07-09T04:18:51.093Z,73.23
2014-07-09T04:19:56.080Z,73.57
2014-07-09T04:21:01.065Z,73.43
2014-07-09T04:22:06.037Z,73.42
2014-07-09T04:23:10.726Z,73.73
2014-07-09T04:24:15.416Z,73.49
2014-07-09T04:25:20.105Z,73.87
2014-07-09T04:26:24.795Z,73.53
2014-07-09T04:27:29.781Z,73.47
2014-07-09T04:28:34.455Z,73.68
2014-07-09T04:29:39.145Z,73.54
2014-07-09T04:30:43.820Z,73.57
2014-07-09T04:31:48.508Z,73.87
2014-07-09T04:32:53.494Z,74.02
2014-07-09T04:33:58.185Z,73.68
2014-07-09T04:35:02.873Z,73.53
2014-07-09T04:36:07.564Z,73.77
2014-07-09T04:37:12.238Z,74.01
2014-07-09T04:38:16.943Z,73.82
2014-07-09T04:39:21.929Z,74
2014-07-09T04:40:26.603Z,73.73
2014-07-09T04:41:31.293Z,73.62
2014-07-09T04:42:36.280Z,74.22
2014-07-09T04:43:40.281Z,74.27
2014-07-09T04:44:44.971Z,73.9
2014-07-09T04:45:49.645Z,73.45
2014-07-09T04:46:54.631Z,72.93
2014-07-09T04:47:59.617Z,73.52
2014-07-09T04:49:04.292Z,74.03
2014-07-09T04:50:09.278Z,73.44
2014-07-09T04:51:13.968Z,74.39
2014-07-09T04:52:18.673Z,74.29
2014-07-09T04:53:23.363Z,74.05
2014-07-09T04:54:28.052Z,73.78
2014-07-09T04:55:32.742Z,73.7
2014-07-09T04:56:37.415Z,73.47
2014-07-09T04:57:42.105Z,73.77
2014-07-09T04:58:47.091Z,73.34
2014-07-09T04:59:52.062Z,73.51
2014-07-09T05:00:56.753Z,74.07
2014-07-09T05:02:01.442Z,74.09
2014-07-09T05:03:06.131Z,73.7
2014-07-09T05:04:10.821Z,73.96
2014-07-09T05:05:15.495Z,74.12
2014-07-09T05:06:20.184Z,73.89
2014-07-09T05:07:25.155Z,74
2014-07-09T05:08:30.142Z,74.47
2014-07-09T05:09:34.831Z,74.3
2014-07-09T05:10:39.817Z,74.72
2014-07-09T05:11:44.491Z,74.37
2014-07-09T05:12:49.181Z,74.26
2014-07-09T05:13:53.870Z,74.6
2014-07-09T05:14:58.544Z,73.8
2014-07-09T05:16:03.234Z,74.16
2014-07-09T05:17:08.221Z,74
2014-07-09T05:18:13.191Z,74.07
2014-07-09T05:19:17.881Z,74.1
2014-07-09T05:20:22.867Z,74.11
2014-07-09T05:21:27.542Z,73.78
2014-07-09T05:22:31.544Z,73.77
2014-07-09T05:23:36.233Z,74.01
2014-07-09T05:24:40.923Z,74.01
2014-07-09T05:25:45.596Z,74.34
2014-07-09T05:26:50.583Z,73.65
2014-07-09T05:27:55.272Z,73.58
2014-07-09T05:28:59.946Z,73.5
2014-07-09T05:30:04.636Z,74.04
2014-07-09T05:31:09.920Z,73.79
2014-07-09T05:32:14.608Z,73.53
2014-07-09T05:33:19.596Z,73.66
2014-07-09T05:34:24.269Z,73.41
2014-07-09T05:35:28.959Z,74.17
2014-07-09T05:36:33.633Z,73.82
2014-07-09T05:37:38.323Z,74.14
2014-07-09T05:38:43.028Z,74.09
2014-07-09T05:39:47.999Z,74.15
2014-07-09T05:40:52.688Z,74.01
2014-07-09T05:41:57.378Z,74.39
2014-07-09T05:43:02.083Z,74.09
2014-07-09T05:44:06.757Z,74.13
2014-07-09T05:45:11.446Z,74.12
2014-07-09T05:46:16.135Z,73.92
2014-07-09T05:47:21.123Z,73.77
2014-07-09T05:48:25.796Z,73.71
2014-07-09T05:49:30.486Z,73.47
2014-07-09T05:50:35.176Z,74.01
2014-07-09T05:51:39.850Z,73.47
2014-07-09T05:52:44.836Z,73.54
2014-07-09T05:53:49.525Z,73.51
2014-07-09T05:54:54.512Z,74.01
2014-07-09T05:55:59.186Z,73.89
2014-07-09T05:57:03.875Z,74.16
2014-07-09T05:58:08.862Z,74.21
2014-07-09T05:59:13.160Z,73.93
2014-07-09T06:00:17.835Z,73.8
2014-07-09T06:01:22.821Z,74.03
2014-07-09T06:02:27.511Z,73.6
2014-07-09T06:03:32.498Z,73.29
2014-07-09T06:04:37.171Z,74.16
2014-07-09T06:05:42.157Z,74.07
2014-07-09T06:06:46.846Z,73.75
2014-07-09T06:07:51.537Z,73.7
2014-07-09T06:08:56.211Z,73.72
2014-07-09T06:10:01.197Z,73.49
2014-07-09T06:11:05.887Z,73.98
2014-07-09T06:12:10.889Z,74.23
2014-07-09T06:13:15.579Z,73.61
2014-07-09T06:14:20.268Z,73.93
2014-07-09T06:15:25.239Z,73.63
2014-07-09T06:16:29.928Z,73.29
2014-07-09T06:17:34.617Z,73.27
2014-07-09T06:18:39.589Z,73.6
2014-07-09T06:19:44.575Z,73.98
2014-07-09T06:20:49.562Z,73.58
2014-07-09T06:21:54.250Z,73.24
2014-07-09T06:22:58.269Z,73.07
2014-07-09T06:24:02.943Z,73.03
2014-07-09T06:25:07.929Z,73.41
2014-07-09T06:26:12.916Z,73.74
2014-07-09T06:27:17.590Z,74.24
2014-07-09T06:28:22.279Z,73.41
2014-07-09T06:29:26.953Z,72.84
2014-07-09T06:30:31.643Z,73.51
2014-07-09T06:31:36.317Z,73.76
2014-07-09T06:32:41.304Z,73.7
2014-07-09T06:33:45.977Z,73.23
2014-07-09T06:34:50.667Z,73.4
2014-07-09T06:35:55.341Z,73.7
2014-07-09T06:37:00.046Z,73.43
2014-07-09T06:38:05.017Z,73.59
2014-07-09T06:39:10.003Z,73.87
2014-07-09T06:40:14.989Z,73.19
2014-07-09T06:41:19.663Z,73.31
2014-07-09T06:42:24.353Z,72.41
2014-07-09T06:43:29.027Z,71.78
2014-07-09T06:44:33.716Z,71.15
2014-07-09T06:45:38.704Z,72.11
2014-07-09T06:46:43.393Z,73.05
2014-07-09T06:47:47.379Z,72.76
2014-07-09T06:48:51.380Z,73.42
2014-07-09T06:49:56.071Z,73.8
2014-07-09T06:51:01.041Z,74.01
2014-07-09T06:52:05.731Z,73.42
2014-07-09T06:53:10.702Z,73.38
2014-07-09T06:54:15.688Z,72.69
2014-07-09T06:55:20.378Z,72.47
2014-07-09T06:56:25.067Z,72.85
2014-07-09T06:57:29.772Z,72.75
2014-07-09T06:58:34.447Z,72.82
2014-07-09T06:59:39.151Z,73.17
2014-07-09T07:00:43.826Z,73.63
2014-07-09T07:01:48.515Z,73.89
2014-07-09T07:02:53.799Z,73.34
2014-07-09T07:03:58.473Z,73.45
2014-07-09T07:05:03.162Z,73.57
2014-07-09T07:06:07.852Z,73.67
2014-07-09T07:07:12.541Z,74.1
2014-07-09T07:08:17.512Z,74.02
2014-07-09T07:09:22.202Z,73.13
2014-07-09T07:10:26.892Z,73.84
2014-07-09T07:11:31.596Z,73.39
2014-07-09T07:12:36.317Z,73.56
2014-07-09T07:13:40.991Z,73.86
2014-07-09T07:14:45.681Z,73.75
2014-07-09T07:15:50.355Z,73.36
2014-07-09T07:16:55.341Z,73.62
2014-07-09T07:18:00.031Z,73.77
2014-07-09T07:19:04.721Z,73.86
2014-07-09T07:20:09.410Z,73.72
2014-07-09T07:21:14.397Z,73.48
2014-07-09T07:22:19.070Z,73.31
2014-07-09T07:23:23.760Z,73.97
2014-07-09T07:24:28.449Z,74
2014-07-09T07:25:33.139Z,74.03
2014-07-09T07:26:37.813Z,74.24
2014-07-09T07:27:42.502Z,73.54
2014-07-09T07:28:47.192Z,73.19
2014-07-09T07:29:51.866Z,74.3
2014-07-09T07:30:56.853Z,74.31
2014-07-09T07:32:01.526Z,74.37
2014-07-09T07:33:06.216Z,73.88
2014-07-09T07:34:11.187Z,74.74
2014-07-09T07:35:15.877Z,73.54
2014-07-09T07:36:20.565Z,73.69
2014-07-09T07:37:25.537Z,73.25
2014-07-09T07:38:30.226Z,73.1
2014-07-09T07:39:34.900Z,73.58
2014-07-09T07:40:39.574Z,73.29
2014-07-09T07:41:44.264Z,73.76
2014-07-09T07:42:49.235Z,73.76
2014-07-09T07:43:53.924Z,73.92
2014-07-09T07:44:58.614Z,73.41
2014-07-09T07:46:03.288Z,73.57
2014-07-09T07:47:08.289Z,73.88
2014-07-09T07:48:12.995Z,73.4
2014-07-09T07:49:17.669Z,73.71
2014-07-09T07:50:22.358Z,73.93
2014-07-09T07:51:27.329Z,73.02
2014-07-09T07:52:32.002Z,72.61
2014-07-09T07:53:36.989Z,72.58
2014-07-09T07:54:41.663Z,72.98
2014-07-09T07:55:46.354Z,72.71
2014-07-09T07:56:51.043Z,72.98
2014-07-09T07:57:56.030Z,73.96
2014-07-09T07:59:00.719Z,73.64
2014-07-09T08:00:05.690Z,72.87
2014-07-09T08:01:10.676Z,73.6
2014-07-09T08:02:15.350Z,73.07
2014-07-09T08:03:20.336Z,73.55
2014-07-09T08:04:25.307Z,73.42
2014-07-09T08:05:30.294Z,73.41
2014-07-09T08:06:34.984Z,73.43
2014-07-09T08:07:38.970Z,73.35
2014-07-09T08:08:43.753Z,72.88
2014-07-09T08:09:48.443Z,72.95
2014-07-09T08:10:53.118Z,72.89
2014-07-09T08:11:57.806Z,72.73
2014-07-09T08:13:02.480Z,73.45
2014-07-09T08:14:07.170Z,73.52
2014-07-09T08:15:11.156Z,72.94
2014-07-09T08:16:15.846Z,72.9
2014-07-09T08:17:20.519Z,72.87
2014-07-09T08:18:25.506Z,72.71
2014-07-09T08:19:30.179Z,73.41
2014-07-09T08:20:34.869Z,72.75
2014-07-09T08:21:39.840Z,73.12
2014-07-09T08:22:44.529Z,73.17
2014-07-09T08:23:49.202Z,73.11
2014-07-09T08:24:53.909Z,72.74
2014-07-09T08:25:58.599Z,72.68
2014-07-09T08:27:03.274Z,72.29
2014-07-09T08:28:07.962Z,72.42
2014-07-09T08:29:12.653Z,72.63
2014-07-09T08:30:17.622Z,72.68
2014-07-09T08:31:22.312Z,72.66
2014-07-09T08:32:26.986Z,73.08
2014-07-09T08:33:31.676Z,72.8
2014-07-09T08:34:36.366Z,72.78
2014-07-09T08:35:41.368Z,72.6
2014-07-09T08:36:46.042Z,72.65
2014-07-09T08:37:51.028Z,72.56
2014-07-09T08:38:55.717Z,72.29
2014-07-09T08:40:00.391Z,73.19
2014-07-09T08:41:05.675Z,72.38
2014-07-09T08:42:10.661Z,72.32
2014-07-09T08:43:14.647Z,72.49
2014-07-09T08:44:19.337Z,73.23
2014-07-09T08:45:24.323Z,72.92
2014-07-09T08:46:29.310Z,72.72
2014-07-09T08:47:33.984Z,73.25
2014-07-09T08:48:38.673Z,73.44
2014-07-09T08:49:43.363Z,73.68
2014-07-09T08:50:48.037Z,72.73
2014-07-09T08:51:52.727Z,72.66
2014-07-09T08:52:57.416Z,72.67
2014-07-09T08:54:02.114Z,72.5
2014-07-09T08:55:06.830Z,72.48
2014-07-09T08:56:11.562Z,72.97
2014-07-09T08:57:16.592Z,73.08
2014-07-09T08:58:21.324Z,73.02
2014-07-09T08:59:26.025Z,72.32
2014-07-09T09:00:31.027Z,71.93
2014-07-09T09:01:36.029Z,72.23
2014-07-09T09:02:40.734Z,72.1
2014-07-09T09:03:45.439Z,72.83
2014-07-09T09:04:50.416Z,72.87
2014-07-09T09:05:55.111Z,72.91
2014-07-09T09:06:59.805Z,72.7
2014-07-09T09:08:04.485Z,73.12
2014-07-09T09:09:09.179Z,72.81
2014-07-09T09:10:14.168Z,72.33
2014-07-09T09:11:19.157Z,72.16
2014-07-09T09:12:23.848Z,71.44
2014-07-09T09:13:28.836Z,71.99
2014-07-09T09:14:33.808Z,72.55
2014-07-09T09:15:38.795Z,72.95
2014-07-09T09:16:43.782Z,72.09
2014-07-09T09:17:48.471Z,72.36
2014-07-09T09:18:53.162Z,73.02
2014-07-09T09:19:57.836Z,73.09
2014-07-09T09:21:02.823Z,74
2014-07-09T09:22:07.794Z,73.57
2014-07-09T09:23:12.484Z,73.12
2014-07-09T09:24:17.174Z,72.62
2014-07-09T09:25:21.863Z,73.07
2014-07-09T09:26:26.850Z,72.79
2014-07-09T09:27:31.821Z,72.79
2014-07-09T09:28:36.511Z,72.74
2014-07-09T09:29:41.200Z,73.28
2014-07-09T09:30:45.890Z,73.32
2014-07-09T09:31:50.564Z,73.5
2014-07-09T09:32:55.253Z,72.75
2014-07-09T09:34:00.240Z,71.97
2014-07-09T09:35:04.914Z,72.39
2014-07-09T09:36:09.603Z,72.98
2014-07-09T09:37:14.591Z,73.01
2014-07-09T09:38:19.280Z,72.88
2014-07-09T09:39:23.953Z,72.75
2014-07-09T09:40:28.642Z,72.7
2014-07-09T09:41:33.317Z,73.58
2014-07-09T09:42:38.007Z,73.49
2014-07-09T09:43:42.680Z,73.87
2014-07-09T09:44:47.667Z,73.63
2014-07-09T09:45:52.341Z,72.94
2014-07-09T09:46:57.030Z,72.43
2014-07-09T09:48:02.017Z,73.12
2014-07-09T09:49:06.690Z,73.01
2014-07-09T09:50:11.380Z,73.7
2014-07-09T09:51:16.054Z,72.53
2014-07-09T09:52:20.745Z,72.83
2014-07-09T09:53:25.418Z,72.2
2014-07-09T09:54:30.404Z,72.85
2014-07-09T09:55:35.093Z,73.47
2014-07-09T09:56:39.767Z,73.77
2014-07-09T09:57:44.769Z,73.23
2014-07-09T09:58:49.741Z,73.38
2014-07-09T09:59:54.430Z,73.57
2014-07-09T10:00:59.120Z,73.22
2014-07-09T10:02:03.793Z,73.59
2014-07-09T10:03:08.483Z,72.63
2014-07-09T10:04:13.173Z,72.66
2014-07-09T10:05:17.847Z,72.97
2014-07-09T10:06:22.537Z,73.48
2014-07-09T10:07:27.210Z,72.88
2014-07-09T10:08:32.197Z,73.16
2014-07-09T10:09:36.886Z,73.26
2014-07-09T10:10:41.857Z,72.83
2014-07-09T10:11:47.140Z,73.33
2014-07-09T10:12:51.829Z,72.75
2014-07-09T10:13:56.801Z,72.65
2014-07-09T10:15:01.490Z,72.93
2014-07-09T10:16:06.477Z,73.26
2014-07-09T10:17:11.167Z,72.86
2014-07-09T10:18:16.137Z,72.33
2014-07-09T10:19:21.139Z,72.85
2014-07-09T10:20:25.829Z,72.94
2014-07-09T10:21:30.815Z,73.52
2014-07-09T10:22:35.786Z,73.47
2014-07-09T10:23:40.476Z,72.46
2014-07-09T10:24:45.447Z,72.43
2014-07-09T10:25:50.136Z,72.61
2014-07-09T10:26:54.826Z,72.55
2014-07-09T10:27:59.500Z,72.45
2014-07-09T10:29:04.190Z,72.66
2014-07-09T10:30:08.879Z,72.89
2014-07-09T10:31:13.569Z,72.52
2014-07-09T10:32:18.258Z,73.22
2014-07-09T10:33:22.932Z,73.78
2014-07-09T10:34:27.621Z,73.08
2014-07-09T10:35:32.592Z,72.12
2014-07-09T10:36:37.579Z,72.68
2014-07-09T10:37:42.565Z,72.65
2014-07-09T10:38:47.239Z,72.5
2014-07-09T10:39:51.929Z,72.75
2014-07-09T10:40:56.603Z,72.13
2014-07-09T10:42:01.292Z,72.57
2014-07-09T10:43:05.966Z,72.95
2014-07-09T10:44:10.656Z,71.98
2014-07-09T10:45:15.626Z,72.32
2014-07-09T10:46:20.316Z,72.7
2014-07-09T10:47:24.990Z,72.94
2014-07-09T10:48:29.976Z,72.81
2014-07-09T10:49:34.666Z,72.26
2014-07-09T10:50:39.340Z,72.05
2014-07-09T10:51:44.014Z,72.06
2014-07-09T10:52:49.000Z,72.41
2014-07-09T10:53:53.690Z,72.23
2014-07-09T10:54:58.379Z,72.89
2014-07-09T10:56:03.053Z,72.42
2014-07-09T10:57:07.744Z,72.33
2014-07-09T10:58:12.730Z,72.9
2014-07-09T10:59:17.700Z,72.95
2014-07-09T11:00:22.687Z,72.83
2014-07-09T11:01:27.657Z,72.33
2014-07-09T11:02:32.347Z,72.27
2014-07-09T11:03:37.037Z,72.7
2014-07-09T11:04:41.711Z,72.12
2014-07-09T11:05:46.400Z,72.22
2014-07-09T11:06:51.090Z,72.64
2014-07-09T11:07:55.077Z,72.4
2014-07-09T11:08:59.766Z,71.09
2014-07-09T11:10:04.737Z,71.89
2014-07-09T11:11:09.723Z,71.87
2014-07-09T11:12:13.725Z,72.11
2014-07-09T11:13:18.400Z,72.42
2014-07-09T11:14:23.386Z,72.11
2014-07-09T11:15:28.356Z,71.61
2014-07-09T11:16:33.046Z,71.46
2014-07-09T11:17:37.736Z,72.14
2014-07-09T11:18:42.706Z,72.87
2014-07-09T11:19:47.396Z,72.46
2014-07-09T11:20:52.085Z,71.41
2014-07-09T11:21:56.759Z,71.56
2014-07-09T11:23:01.746Z,71.53
2014-07-09T11:24:06.436Z,72.13
2014-07-09T11:25:11.109Z,72.39
2014-07-09T11:26:15.799Z,72.28
2014-07-09T11:27:20.473Z,72.39
2014-07-09T11:28:25.162Z,72.59
2014-07-09T11:29:29.852Z,73.31
2014-07-09T11:30:34.526Z,73.23
2014-07-09T11:31:39.215Z,73.34
2014-07-09T11:32:44.201Z,73.27
2014-07-09T11:33:48.876Z,72.49
2014-07-09T11:34:53.566Z,72.3
2014-07-09T11:35:58.552Z,71.27
2014-07-09T11:37:03.241Z,70.6
2014-07-09T11:38:08.228Z,71.47
2014-07-09T11:39:13.215Z,72.28
2014-07-09T11:40:17.888Z,71.8
2014-07-09T11:41:22.579Z,71.8
2014-07-09T11:42:27.565Z,71.86
2014-07-09T11:43:32.535Z,71.85
2014-07-09T11:44:37.225Z,71.34
2014-07-09T11:45:42.212Z,71.84
2014-07-09T11:46:46.885Z,72.35
2014-07-09T11:47:51.872Z,72.15
2014-07-09T11:48:56.561Z,71.58
2014-07-09T11:50:01.563Z,71.23
2014-07-09T11:51:06.253Z,71.16
2014-07-09T11:52:10.942Z,71.61
2014-07-09T11:53:15.632Z,71.71
2014-07-09T11:54:20.306Z,71.87
2014-07-09T11:55:24.995Z,72.05
2014-07-09T11:56:30.279Z,71.7
2014-07-09T11:57:35.250Z,72.09
2014-07-09T11:58:39.939Z,71.51
2014-07-09T11:59:44.629Z,71.69
2014-07-09T12:00:49.319Z,71.25
2014-07-09T12:01:54.008Z,72.01
2014-07-09T12:02:58.979Z,70.15
2014-07-09T12:04:03.965Z,70.82
2014-07-09T12:05:08.655Z,70.3
2014-07-09T12:06:13.627Z,70.6
2014-07-09T12:07:18.612Z,71.14
2014-07-09T12:08:23.302Z,70.9
2014-07-09T12:09:27.992Z,71.19
2014-07-09T12:10:32.680Z,71.07
2014-07-09T12:11:37.652Z,71
2014-07-09T12:12:42.341Z,70.52
2014-07-09T12:13:47.328Z,71.37
2014-07-09T12:14:52.002Z,70.73
2014-07-09T12:15:57.020Z,70.79
2014-07-09T12:17:01.709Z,70.88
2014-07-09T12:18:06.399Z,70.7
2014-07-09T12:19:11.072Z,70.2
2014-07-09T12:20:15.762Z,71.33
2014-07-09T12:21:20.451Z,70.75
2014-07-09T12:22:25.438Z,70.92
2014-07-09T12:23:30.112Z,71.76
2014-07-09T12:24:35.098Z,71.62
2014-07-09T12:25:39.789Z,71.53
2014-07-09T12:26:44.775Z,70.83
2014-07-09T12:27:49.448Z,71.25
2014-07-09T12:28:54.154Z,71.38
2014-07-09T12:29:58.842Z,71.14
2014-07-09T12:31:03.830Z,71.65
2014-07-09T12:32:08.801Z,70.73
2014-07-09T12:33:13.490Z,69.26
2014-07-09T12:34:18.181Z,69.84
2014-07-09T12:35:22.869Z,70.62
2014-07-09T12:36:27.855Z,70.84
2014-07-09T12:37:32.545Z,70.25
2014-07-09T12:38:37.234Z,71.38
2014-07-09T12:39:41.909Z,71.32
2014-07-09T12:40:46.895Z,70.11
2014-07-09T12:41:51.882Z,69.34
2014-07-09T12:42:56.571Z,70.6
2014-07-09T12:44:01.261Z,70.6
2014-07-09T12:45:06.544Z,70.47
2014-07-09T12:46:11.515Z,70.84
2014-07-09T12:47:16.205Z,71.55
2014-07-09T12:48:20.894Z,70.45
2014-07-09T12:49:25.568Z,71.09
2014-07-09T12:50:30.554Z,69.8
2014-07-09T12:51:35.541Z,70.53
2014-07-09T12:52:40.231Z,69.98
2014-07-09T12:53:44.904Z,69.83
2014-07-09T12:54:49.594Z,71.03
2014-07-09T12:55:54.565Z,70.93
2014-07-09T12:56:59.254Z,70.88
2014-07-09T12:58:03.944Z,70.26
2014-07-09T12:59:08.633Z,70.92
2014-07-09T13:00:13.604Z,71.25
2014-07-09T13:01:18.294Z,71.82
2014-07-09T13:02:22.984Z,70.15
2014-07-09T13:03:27.673Z,70
2014-07-09T13:04:32.347Z,70.55
2014-07-09T13:05:37.334Z,70.08
2014-07-09T13:06:42.320Z,70.87
2014-07-09T13:07:46.995Z,70.7
2014-07-09T13:08:51.980Z,69.92
2014-07-09T13:09:56.669Z,69.88
2014-07-09T13:11:01.657Z,68.08
2014-07-09T13:12:06.642Z,69.34
2014-07-09T13:13:11.317Z,69.75
2014-07-09T13:14:16.303Z,70.11
2014-07-09T13:15:21.290Z,70.16
2014-07-09T13:16:25.979Z,70.18
2014-07-09T13:17:30.669Z,69.54
2014-07-09T13:18:35.655Z,69.9
2014-07-09T13:19:40.642Z,70.72
2014-07-09T13:20:45.332Z,70.32
2014-07-09T13:21:50.021Z,70.83
2014-07-09T13:22:54.695Z,70.26
2014-07-09T13:23:59.384Z,70.14
2014-07-09T13:25:04.371Z,71.26
2014-07-09T13:26:09.061Z,70.99
2014-07-09T13:27:14.046Z,70.11
2014-07-09T13:28:19.018Z,69.95
2014-07-09T13:29:23.754Z,70.19
2014-07-09T13:30:28.444Z,70.14
2014-07-09T13:31:33.711Z,71.19
2014-07-09T13:32:38.698Z,70.79
2014-07-09T13:33:43.387Z,70.54
2014-07-09T13:34:48.077Z,71.31
2014-07-09T13:35:52.751Z,70.05
2014-07-09T13:36:57.737Z,71.33
2014-07-09T13:38:02.428Z,71.33
2014-07-09T13:39:07.132Z,71.51
2014-07-09T13:40:12.119Z,70.91
2014-07-09T13:41:17.089Z,70.62
2014-07-09T13:42:21.779Z,70.99
2014-07-09T13:43:27.062Z,70.55
2014-07-09T13:44:31.752Z,69.43
2014-07-09T13:45:36.442Z,69.44
2014-07-09T13:46:40.444Z,69.71
2014-07-09T13:47:45.117Z,70.52
2014-07-09T13:48:50.104Z,70.62
2014-07-09T13:49:54.793Z,71.11
2014-07-09T13:50:59.483Z,70.91
2014-07-09T13:52:04.172Z,70.58
2014-07-09T13:53:09.159Z,70.46
2014-07-09T13:54:13.849Z,69.71
2014-07-09T13:55:18.820Z,70.13
2014-07-09T13:56:23.509Z,70.22
2014-07-09T13:57:28.183Z,69.95